Terminal Aerodrome Forecast
Issued by NWS

Home | Current Version | Previous Version | Text Only | Print | Product List | Glossary On
Versions: 1 2 3 4 5 6 7 8 9 10 11 12 13 14 15 16 17 18 19 20 21 22 23 24 25 26 27 28 29 30 31 32 33 34 35 36
831
FTUS44 KFWD 190811 AAA
TAFDAL
TAF AMD
KDAL 190811Z 1908/2006 VRB03KT 6SM BR OVC020
     FM191000 20003KT 2SM BR OVC003
      TEMPO 1910/1914 1SM BR
     FM191600 19010KT P6SM BKN250
     FM191900 20016KT P6SM SCT250=

USA.gov is the U.S. government's official web portal to all federal, state and local government web resources and services.